Millwood, Kentucky
Current Conditions -  °F | °C
As of 2:53 PM on Thursday 27 Nov 2014 (Local Time) from KBWG Reporting Station
Overcast Overcast  
Wind Chill: 23°   Ceiling: 1900
Heat Index: 31°   Visibility: 9mi
Dew Point: 22°   Wind: 8mph
Humidity: 69%   Direction: 310°NW
Pressure: 30.44"   Gusts: NA
Location:  37.45°N, 86.39°W
Report Text: KBWG 272053Z AUTO 31007KT 280V350 9SM OVC019 M01/M06 A3044 RMK AO2 SLP312 T10061056 53005
Loading
Personal Weather Stations






























Interactive Weather Map New forecast layout! Learn more

10-Day Weather Forecast

Advertisements
Track Severe Weather on mobile